Time;durP1;ratioP1;P1;durP2;ratioP2;P2;SDS_P1;SDS_P2;PMS_P1;PMS_P2;Temp;Humidity;BMP_temperature;BMP_pressure;BME280_temperature;BME280_humidity;BME280_pressure;Samples;Min_cycle;Max_cycle;Signal;HPM_P1;HPM_P2
2021/11/19 00:00:44;;;;;;;;;;;19.90;56.70;;;;;;3132496;28;20024;-57
2021/11/19 00:02:16;;;;;;;;;;;20.00;56.70;;;;;;3133511;28;19945;-57
2021/11/19 00:03:47;;;;;;;;;;;19.90;56.70;;;;;;3132378;28;19925;-59
2021/11/19 00:05:20;;;;;;;;;;;19.90;56.80;;;;;;3133297;28;19925;-56
2021/11/19 00:06:52;;;;;;;;;;;19.90;56.80;;;;;;3132758;28;19929;-59
2021/11/19 00:08:27;;;;;;;;;;;19.90;56.80;;;;;;3133685;28;20424;-59
2021/11/19 00:09:58;;;;;;;;;;;19.80;56.90;;;;;;3132019;28;20345;-56
2021/11/19 00:11:31;;;;;;;;;;;19.90;56.80;;;;;;3132248;28;20378;-56
2021/11/19 00:13:02;;;;;;;;;;;19.90;56.80;;;;;;3131965;28;19929;-55
2021/11/19 00:14:34;;;;;;;;;;;19.80;56.80;;;;;;3132460;28;19924;-57
2021/11/19 00:16:06;;;;;;;;;;;19.80;57.00;;;;;;3132482;28;20282;-55
2021/11/19 00:17:37;;;;;;;;;;;19.80;56.90;;;;;;3131926;28;19925;-57
2021/11/19 00:19:09;;;;;;;;;;;19.80;56.90;;;;;;3126168;28;19932;-58
2021/11/19 00:20:42;;;;;;;;;;;19.90;56.90;;;;;;3131944;28;19932;-57
2021/11/19 00:22:14;;;;;;;;;;;19.90;57.00;;;;;;3132638;28;19924;-57
2021/11/19 00:23:46;;;;;;;;;;;19.90;56.90;;;;;;3131188;28;19925;-57
2021/11/19 00:25:17;;;;;;;;;;;19.90;56.90;;;;;;3128088;28;20410;-54
2021/11/19 00:26:49;;;;;;;;;;;19.90;56.80;;;;;;3129227;28;19932;-61
2021/11/19 00:28:20;;;;;;;;;;;19.80;56.90;;;;;;3132474;28;19932;-55
2021/11/19 00:29:52;;;;;;;;;;;19.80;56.90;;;;;;3132042;28;19982;-55
2021/11/19 00:31:24;;;;;;;;;;;19.80;57.00;;;;;;3131904;28;19928;-58
2021/11/19 00:32:55;;;;;;;;;;;19.70;57.10;;;;;;3132158;28;20019;-59
2021/11/19 00:34:27;;;;;;;;;;;19.70;57.30;;;;;;3131077;28;20226;-59
2021/11/19 00:36:01;;;;;;;;;;;19.70;57.20;;;;;;3131615;28;19925;-58
2021/11/19 00:37:33;;;;;;;;;;;19.70;57.50;;;;;;3131988;28;20373;-53
2021/11/19 00:39:05;;;;;;;;;;;19.70;57.60;;;;;;3131673;28;19925;-55
2021/11/19 00:40:37;;;;;;;;;;;19.70;57.70;;;;;;3130560;28;19925;-55
2021/11/19 00:42:10;;;;;;;;;;;19.70;57.80;;;;;;3132403;28;19924;-57
2021/11/19 00:43:41;;;;;;;;;;;19.70;57.80;;;;;;3130920;28;19948;-60
2021/11/19 00:45:13;;;;;;;;;;;19.70;57.70;;;;;;3130878;28;19940;-55
2021/11/19 00:46:44;;;;;;;;;;;19.70;57.60;;;;;;3131566;28;19956;-57
2021/11/19 00:48:17;;;;;;;;;;;19.70;57.70;;;;;;3128391;28;19925;-60
2021/11/19 00:49:48;;;;;;;;;;;19.70;57.70;;;;;;3131737;28;20286;-58
2021/11/19 00:51:21;;;;;;;;;;;19.80;57.50;;;;;;3131613;28;19931;-56
2021/11/19 00:52:52;;;;;;;;;;;19.90;57.10;;;;;;3132072;28;20774;-58
2021/11/19 00:54:24;;;;;;;;;;;20.00;57.00;;;;;;3132256;28;19925;-59
2021/11/19 00:55:55;;;;;;;;;;;20.00;56.90;;;;;;3131789;28;19924;-56
2021/11/19 00:57:27;;;;;;;;;;;20.10;56.90;;;;;;3132933;28;19925;-55
2021/11/19 00:58:58;;;;;;;;;;;20.10;56.80;;;;;;3132338;28;19924;-58
2021/11/19 01:00:31;;;;;;;;;;;20.10;56.80;;;;;;3131626;28;19948;-56
2021/11/19 01:02:03;;;;;;;;;;;20.10;56.70;;;;;;3132745;28;20788;-57
2021/11/19 01:03:35;;;;;;;;;;;20.10;56.70;;;;;;3131721;28;19925;-59
2021/11/19 01:05:07;;;;;;;;;;;20.20;56.50;;;;;;3132466;28;19983;-55
2021/11/19 01:06:40;;;;;;;;;;;20.20;56.40;;;;;;3132366;28;20557;-56
2021/11/19 01:08:12;;;;;;;;;;;20.20;56.40;;;;;;3132487;28;20369;-57
2021/11/19 01:09:44;;;;;;;;;;;20.20;56.40;;;;;;3131843;28;19924;-57
2021/11/19 01:11:16;;;;;;;;;;;20.20;56.40;;;;;;3132075;28;20297;-58
2021/11/19 01:12:48;;;;;;;;;;;20.20;56.40;;;;;;3132062;28;20302;-57
2021/11/19 01:14:21;;;;;;;;;;;20.30;56.30;;;;;;3127329;28;20393;-59
2021/11/19 01:15:53;;;;;;;;;;;20.30;56.30;;;;;;3196539;22;19929;-58
2021/11/19 01:17:26;;;;;;;;;;;20.30;56.40;;;;;;3135126;28;20438;-61
2021/11/19 01:18:59;;;;;;;;;;;20.30;56.30;;;;;;3135583;28;19924;-64
2021/11/19 01:20:33;;;;;;;;;;;20.30;56.10;;;;;;3133025;28;20388;-63
2021/11/19 01:22:08;;;;;;;;;;;20.40;56.20;;;;;;3132053;28;19932;-60
2021/11/19 01:23:40;;;;;;;;;;;20.30;56.10;;;;;;3134001;28;19925;-64
2021/11/19 01:25:12;;;;;;;;;;;20.30;56.10;;;;;;3144659;28;19970;-57
2021/11/19 01:26:44;;;;;;;;;;;20.30;56.10;;;;;;3144272;28;20388;-58
2021/11/19 01:28:15;;;;;;;;;;;20.30;56.10;;;;;;3139744;28;19929;-60
2021/11/19 01:29:47;;;;;;;;;;;20.40;56.00;;;;;;3132483;28;19925;-62
2021/11/19 01:31:19;;;;;;;;;;;20.40;56.00;;;;;;3131194;28;19920;-59
2021/11/19 01:32:51;;;;;;;;;;;20.40;55.90;;;;;;3132142;28;20348;-60
2021/11/19 01:34:23;;;;;;;;;;;20.40;55.90;;;;;;3132020;28;20301;-64
2021/11/19 01:35:54;;;;;;;;;;;20.40;55.90;;;;;;3131637;28;19928;-59
2021/11/19 01:37:27;;;;;;;;;;;20.40;55.90;;;;;;3132638;28;19951;-58
2021/11/19 01:38:59;;;;;;;;;;;20.40;55.90;;;;;;3134171;28;19929;-66
2021/11/19 01:40:31;;;;;;;;;;;20.40;55.90;;;;;;3134018;28;19924;-62
2021/11/19 01:42:04;;;;;;;;;;;20.40;55.70;;;;;;3134706;28;19932;-57
2021/11/19 01:43:36;;;;;;;;;;;20.50;55.70;;;;;;3133901;28;19936;-61
2021/11/19 01:45:09;;;;;;;;;;;20.50;55.70;;;;;;3133006;28;19925;-65
2021/11/19 01:46:42;;;;;;;;;;;20.50;55.70;;;;;;3133967;28;19929;-59
2021/11/19 01:48:17;;;;;;;;;;;20.50;55.70;;;;;;3134660;28;20005;-59
2021/11/19 01:49:48;;;;;;;;;;;20.50;55.80;;;;;;3140628;28;19925;-58
2021/11/19 01:51:22;;;;;;;;;;;20.50;55.80;;;;;;3146430;28;20278;-59
2021/11/19 01:52:57;;;;;;;;;;;20.50;55.60;;;;;;3147150;28;19925;-65
2021/11/19 01:54:29;;;;;;;;;;;20.50;55.70;;;;;;3146676;28;19928;-56
2021/11/19 01:56:01;;;;;;;;;;;20.40;55.70;;;;;;3137179;28;20000;-58
2021/11/19 01:57:33;;;;;;;;;;;20.40;55.70;;;;;;3134201;28;20373;-65
2021/11/19 01:59:05;;;;;;;;;;;20.50;55.70;;;;;;3134102;28;19979;-59
2021/11/19 02:00:38;;;;;;;;;;;20.50;55.70;;;;;;3132832;28;20435;-61
2021/11/19 02:02:11;;;;;;;;;;;20.50;55.50;;;;;;3134182;28;19925;-58
2021/11/19 02:03:43;;;;;;;;;;;20.50;55.60;;;;;;3132586;28;19963;-63
2021/11/19 02:05:19;;;;;;;;;;;20.50;55.60;;;;;;3133661;28;19925;-61
2021/11/19 02:06:51;;;;;;;;;;;20.50;55.60;;;;;;3133997;28;20019;-54
2021/11/19 02:08:24;;;;;;;;;;;20.50;55.60;;;;;;3133678;28;19925;-66
2021/11/19 02:09:58;;;;;;;;;;;20.50;55.60;;;;;;3132905;28;19982;-59
2021/11/19 02:11:33;;;;;;;;;;;20.50;55.60;;;;;;3133854;28;19921;-59
2021/11/19 02:13:07;;;;;;;;;;;20.50;55.50;;;;;;3132484;28;20066;-58
2021/11/19 02:14:40;;;;;;;;;;;20.50;55.50;;;;;;3127186;28;19948;-55
2021/11/19 02:16:13;;;;;;;;;;;20.60;55.50;;;;;;3131724;28;19929;-64
2021/11/19 02:17:45;;;;;;;;;;;20.50;55.50;;;;;;3139442;28;19924;-55
2021/11/19 02:19:17;;;;;;;;;;;20.50;55.50;;;;;;3134272;28;19925;-58
2021/11/19 02:20:51;;;;;;;;;;;20.50;55.50;;;;;;3131827;28;19924;-59
2021/11/19 02:22:24;;;;;;;;;;;20.50;55.50;;;;;;3134627;28;19932;-59
2021/11/19 02:23:59;;;;;;;;;;;20.50;55.50;;;;;;3138042;28;19924;-61
2021/11/19 02:25:31;;;;;;;;;;;20.50;55.40;;;;;;3141705;28;19925;-63
2021/11/19 02:27:04;;;;;;;;;;;20.60;55.40;;;;;;3133959;28;19925;-55
2021/11/19 02:28:36;;;;;;;;;;;20.50;55.50;;;;;;3133699;28;20057;-62
2021/11/19 02:30:09;;;;;;;;;;;20.50;56.20;;;;;;3133175;28;19951;-57
2021/11/19 02:31:46;;;;;;;;;;;20.50;55.50;;;;;;3132847;28;19974;-64
2021/11/19 02:33:17;;;;;;;;;;;20.50;55.50;;;;;;3132032;28;19929;-58
2021/11/19 02:34:49;;;;;;;;;;;20.50;55.50;;;;;;3134229;28;19925;-62
2021/11/19 02:36:22;;;;;;;;;;;20.50;55.50;;;;;;3132277;28;20283;-59
2021/11/19 02:37:54;;;;;;;;;;;20.50;55.50;;;;;;3132809;28;19932;-59
2021/11/19 02:39:28;;;;;;;;;;;20.50;55.50;;;;;;3132651;28;20331;-61
2021/11/19 02:41:00;;;;;;;;;;;20.50;55.40;;;;;;3133552;28;19925;-60
2021/11/19 02:42:32;;;;;;;;;;;20.60;55.40;;;;;;3133276;28;20020;-64
2021/11/19 02:44:05;;;;;;;;;;;20.60;55.40;;;;;;3133035;28;19924;-58
2021/11/19 02:45:37;;;;;;;;;;;20.60;55.30;;;;;;3130606;28;19940;-58
2021/11/19 02:47:10;;;;;;;;;;;20.60;55.20;;;;;;3134026;28;19925;-66
2021/11/19 02:48:42;;;;;;;;;;;20.60;55.30;;;;;;3133124;28;19925;-57
2021/11/19 02:50:14;;;;;;;;;;;20.60;55.40;;;;;;3132663;28;19971;-61
2021/11/19 02:51:47;;;;;;;;;;;20.60;55.10;;;;;;3132790;28;20400;-64
2021/11/19 02:53:18;;;;;;;;;;;20.60;55.30;;;;;;3132379;28;20335;-58
2021/11/19 02:54:51;;;;;;;;;;;20.60;55.30;;;;;;3133260;28;19925;-62
2021/11/19 02:56:23;;;;;;;;;;;20.60;55.40;;;;;;3132372;28;20293;-61
2021/11/19 02:57:54;;;;;;;;;;;20.60;55.30;;;;;;3133450;28;20290;-59
2021/11/19 02:59:26;;;;;;;;;;;20.60;55.20;;;;;;3133616;28;19970;-61
2021/11/19 03:00:58;;;;;;;;;;;20.60;55.40;;;;;;3130962;28;20436;-61
2021/11/19 03:02:30;;;;;;;;;;;20.60;55.20;;;;;;3133175;28;20304;-59
2021/11/19 03:04:06;;;;;;;;;;;20.60;55.30;;;;;;3132880;28;19924;-56
2021/11/19 03:05:37;;;;;;;;;;;20.60;55.30;;;;;;3132716;28;19936;-59
2021/11/19 03:07:10;;;;;;;;;;;20.60;55.40;;;;;;3133597;28;19932;-61
2021/11/19 03:08:41;;;;;;;;;;;20.60;55.40;;;;;;3131177;28;19925;-57
2021/11/19 03:10:15;;;;;;;;;;;20.50;55.40;;;;;;3132731;28;19925;-61
2021/11/19 03:11:47;;;;;;;;;;;20.50;55.40;;;;;;3132215;28;20373;-62
2021/11/19 03:13:18;;;;;;;;;;;20.50;55.40;;;;;;3132411;28;20015;-62
2021/11/19 03:14:50;;;;;;;;;;;20.50;55.40;;;;;;3125972;28;19936;-60
2021/11/19 03:16:22;;;;;;;;;;;20.50;55.40;;;;;;3138620;28;19924;-61
2021/11/19 03:17:54;;;;;;;;;;;20.50;55.40;;;;;;3139498;28;19947;-60
2021/11/19 03:19:25;;;;;;;;;;;20.50;55.40;;;;;;3132328;28;19925;-58
2021/11/19 03:20:58;;;;;;;;;;;20.50;55.40;;;;;;3132847;28;19952;-64
2021/11/19 03:22:30;;;;;;;;;;;20.50;55.50;;;;;;3133666;28;20285;-61
2021/11/19 03:24:02;;;;;;;;;;;20.60;55.40;;;;;;3132385;28;20292;-56
2021/11/19 03:25:37;;;;;;;;;;;20.60;55.40;;;;;;3132582;28;19932;-60
2021/11/19 03:27:10;;;;;;;;;;;20.60;55.30;;;;;;3133308;28;19928;-57
2021/11/19 03:28:44;;;;;;;;;;;20.60;55.40;;;;;;3133490;28;19925;-65
2021/11/19 03:30:16;;;;;;;;;;;20.60;55.30;;;;;;3132044;28;20579;-65
2021/11/19 03:31:48;;;;;;;;;;;20.60;55.20;;;;;;3133117;28;19935;-63
2021/11/19 03:33:23;;;;;;;;;;;20.60;55.60;;;;;;3132594;28;20345;-63
2021/11/19 03:34:54;;;;;;;;;;;20.60;55.10;;;;;;3137806;28;19932;-57
2021/11/19 03:36:26;;;;;;;;;;;20.60;55.20;;;;;;3137218;28;19932;-64
2021/11/19 03:37:57;;;;;;;;;;;20.60;55.30;;;;;;3133186;28;19932;-57
2021/11/19 03:39:29;;;;;;;;;;;20.50;55.40;;;;;;3133107;28;19928;-57
2021/11/19 03:41:02;;;;;;;;;;;20.60;55.30;;;;;;3132983;28;19932;-62
2021/11/19 03:42:34;;;;;;;;;;;20.60;55.30;;;;;;3133236;28;20348;-64
2021/11/19 03:44:06;;;;;;;;;;;20.60;55.40;;;;;;3130393;28;20270;-58
2021/11/19 03:45:39;;;;;;;;;;;20.60;55.30;;;;;;3128711;28;20600;-59
2021/11/19 03:47:12;;;;;;;;;;;20.60;55.30;;;;;;3133044;28;20454;-61
2021/11/19 03:48:42;;;;;;;;;;;20.50;55.30;;;;;;3133152;28;19931;-59
2021/11/19 03:50:16;;;;;;;;;;;20.60;55.40;;;;;;3132822;28;20545;-57
2021/11/19 03:51:48;;;;;;;;;;;20.60;55.40;;;;;;3133215;28;19936;-58
2021/11/19 03:53:19;;;;;;;;;;;20.60;55.20;;;;;;3132147;28;19932;-64
2021/11/19 03:54:51;;;;;;;;;;;20.60;55.20;;;;;;3132704;28;19936;-65
2021/11/19 03:56:24;;;;;;;;;;;20.60;55.10;;;;;;3132543;28;19925;-62
2021/11/19 03:57:56;;;;;;;;;;;20.60;55.10;;;;;;3133496;28;20435;-58
2021/11/19 03:59:28;;;;;;;;;;;20.60;55.30;;;;;;3132706;28;19932;-61
2021/11/19 04:01:00;;;;;;;;;;;20.60;55.20;;;;;;3131192;28;20338;-58
2021/11/19 04:02:32;;;;;;;;;;;20.60;55.30;;;;;;3133013;28;19925;-56
2021/11/19 04:04:04;;;;;;;;;;;20.60;55.20;;;;;;3132334;28;19925;-62
2021/11/19 04:05:36;;;;;;;;;;;20.60;55.20;;;;;;3132378;28;19929;-64
2021/11/19 04:07:08;;;;;;;;;;;20.60;55.20;;;;;;3133038;28;19924;-55
2021/11/19 04:08:39;;;;;;;;;;;20.60;55.30;;;;;;3132718;28;19925;-52
2021/11/19 04:10:11;;;;;;;;;;;20.60;55.10;;;;;;3131762;28;19936;-57
2021/11/19 04:11:44;;;;;;;;;;;20.60;55.20;;;;;;3132031;28;19932;-60
2021/11/19 04:13:15;;;;;;;;;;;20.60;55.10;;;;;;3131782;28;19943;-55
2021/11/19 04:14:47;;;;;;;;;;;20.60;55.10;;;;;;3127316;28;19980;-59
2021/11/19 04:16:21;;;;;;;;;;;20.60;55.20;;;;;;3131348;28;19929;-58
2021/11/19 04:17:53;;;;;;;;;;;20.60;55.10;;;;;;3140648;28;19924;-58
2021/11/19 04:19:25;;;;;;;;;;;20.60;55.10;;;;;;3132949;28;19929;-63
2021/11/19 04:20:56;;;;;;;;;;;20.60;55.10;;;;;;3132494;28;20392;-60
2021/11/19 04:22:27;;;;;;;;;;;20.60;55.30;;;;;;3132831;28;19967;-61
2021/11/19 04:23:59;;;;;;;;;;;20.60;55.30;;;;;;3131789;28;19929;-61
2021/11/19 04:25:30;;;;;;;;;;;20.60;55.10;;;;;;3132256;28;19954;-59
2021/11/19 04:27:03;;;;;;;;;;;20.60;55.00;;;;;;3133369;28;19959;-62
2021/11/19 04:28:35;;;;;;;;;;;20.60;55.00;;;;;;3132710;28;20431;-65
2021/11/19 04:30:07;;;;;;;;;;;20.60;55.10;;;;;;3131375;28;20000;-59
2021/11/19 04:31:39;;;;;;;;;;;20.60;55.10;;;;;;3132290;28;19952;-66
2021/11/19 04:33:10;;;;;;;;;;;20.60;55.10;;;;;;3132379;28;19925;-59
2021/11/19 04:34:41;;;;;;;;;;;20.60;55.10;;;;;;3135221;28;22506;-60
2021/11/19 04:36:13;;;;;;;;;;;20.60;55.10;;;;;;3144530;28;19932;-63
2021/11/19 04:37:45;;;;;;;;;;;20.60;55.10;;;;;;3145538;28;19924;-62
2021/11/19 04:39:17;;;;;;;;;;;20.60;55.20;;;;;;3144642;28;19978;-56
2021/11/19 04:40:48;;;;;;;;;;;20.50;55.20;;;;;;3144580;28;20297;-57
2021/11/19 04:42:21;;;;;;;;;;;20.50;55.20;;;;;;3145216;28;19935;-65
2021/11/19 04:43:53;;;;;;;;;;;20.60;55.10;;;;;;3138540;28;19948;-60
2021/11/19 04:45:27;;;;;;;;;;;20.60;55.10;;;;;;3124799;28;19994;-61
2021/11/19 04:46:58;;;;;;;;;;;20.60;55.10;;;;;;3133772;28;19925;-59
2021/11/19 04:48:32;;;;;;;;;;;20.60;55.10;;;;;;3132513;28;19936;-58
2021/11/19 04:50:04;;;;;;;;;;;20.60;55.10;;;;;;3131064;28;19925;-62
2021/11/19 04:51:36;;;;;;;;;;;20.60;55.10;;;;;;3131818;28;19925;-56
2021/11/19 04:53:08;;;;;;;;;;;20.70;55.10;;;;;;3131255;28;19925;-58
2021/11/19 04:54:40;;;;;;;;;;;20.60;55.00;;;;;;3132304;28;19959;-56
2021/11/19 04:56:11;;;;;;;;;;;20.70;54.90;;;;;;3131205;28;19925;-58
2021/11/19 04:57:44;;;;;;;;;;;20.70;54.80;;;;;;3132651;28;20326;-63
2021/11/19 04:59:16;;;;;;;;;;;20.80;54.70;;;;;;3132642;28;20369;-56
2021/11/19 05:00:48;;;;;;;;;;;20.70;54.60;;;;;;3130972;28;20293;-61
2021/11/19 05:02:21;;;;;;;;;;;20.80;54.60;;;;;;3132761;28;20011;-57
2021/11/19 05:03:53;;;;;;;;;;;20.90;54.50;;;;;;3131820;28;20430;-65
2021/11/19 05:05:26;;;;;;;;;;;20.90;54.40;;;;;;3132095;28;19924;-60
2021/11/19 05:06:57;;;;;;;;;;;20.90;54.30;;;;;;3132497;28;19925;-62
2021/11/19 05:08:29;;;;;;;;;;;20.90;54.20;;;;;;3132621;28;19929;-57
2021/11/19 05:10:00;;;;;;;;;;;21.00;54.10;;;;;;3131937;28;19925;-61
2021/11/19 05:11:33;;;;;;;;;;;21.00;53.90;;;;;;3132166;28;20668;-57
2021/11/19 05:13:06;;;;;;;;;;;21.00;53.90;;;;;;3133159;28;20031;-60
2021/11/19 05:14:37;;;;;;;;;;;21.10;53.90;;;;;;3128362;28;19947;-58
2021/11/19 05:16:10;;;;;;;;;;;21.10;53.90;;;;;;3138406;28;20304;-59
2021/11/19 05:17:41;;;;;;;;;;;21.10;53.70;;;;;;3145538;28;19935;-58
2021/11/19 05:19:13;;;;;;;;;;;21.20;53.70;;;;;;3135158;28;19998;-56
2021/11/19 05:20:45;;;;;;;;;;;21.20;53.70;;;;;;3134168;28;20343;-61
2021/11/19 05:22:16;;;;;;;;;;;21.20;53.70;;;;;;3134933;28;19931;-59
2021/11/19 05:23:48;;;;;;;;;;;21.20;53.50;;;;;;3133806;28;20385;-64
2021/11/19 05:25:20;;;;;;;;;;;21.30;53.40;;;;;;3133978;28;19929;-56
2021/11/19 05:26:52;;;;;;;;;;;21.30;53.30;;;;;;3134741;28;19921;-65
2021/11/19 05:28:25;;;;;;;;;;;21.40;53.20;;;;;;3134369;28;19932;-57
2021/11/19 05:29:57;;;;;;;;;;;21.40;53.10;;;;;;3134102;28;19925;-60
2021/11/19 05:31:28;;;;;;;;;;;21.50;53.00;;;;;;3134041;28;20006;-63
2021/11/19 05:33:00;;;;;;;;;;;21.50;52.80;;;;;;3134036;28;19933;-58
2021/11/19 05:34:31;;;;;;;;;;;21.60;52.70;;;;;;3135929;28;19932;-59
2021/11/19 05:36:03;;;;;;;;;;;21.60;52.70;;;;;;3146803;28;19932;-59
2021/11/19 05:37:35;;;;;;;;;;;21.60;52.70;;;;;;3147051;28;20312;-65
2021/11/19 05:39:06;;;;;;;;;;;21.70;52.60;;;;;;3146830;28;19925;-58
2021/11/19 05:40:38;;;;;;;;;;;21.70;52.50;;;;;;3146246;28;19924;-61
2021/11/19 05:42:10;;;;;;;;;;;21.80;52.30;;;;;;3147117;28;19928;-59
2021/11/19 05:43:43;;;;;;;;;;;21.80;52.10;;;;;;3142543;28;20451;-64
2021/11/19 05:45:15;;;;;;;;;;;21.90;52.10;;;;;;3133488;28;20613;-64
2021/11/19 05:46:47;;;;;;;;;;;21.90;52.10;;;;;;3135995;28;19925;-58
2021/11/19 05:48:18;;;;;;;;;;;21.90;52.00;;;;;;3133083;28;19924;-56
2021/11/19 05:49:50;;;;;;;;;;;21.90;52.10;;;;;;3133676;28;19928;-61
2021/11/19 05:51:21;;;;;;;;;;;22.00;52.20;;;;;;3133892;28;20019;-63
2021/11/19 05:52:57;;;;;;;;;;;22.00;52.10;;;;;;3134423;28;19925;-58
2021/11/19 05:54:29;;;;;;;;;;;22.00;52.00;;;;;;3134525;28;20158;-57
2021/11/19 05:56:01;;;;;;;;;;;22.00;52.00;;;;;;3134215;28;19932;-57
2021/11/19 05:57:32;;;;;;;;;;;22.00;51.90;;;;;;3133229;28;20302;-61
2021/11/19 05:59:04;;;;;;;;;;;22.00;51.90;;;;;;3139149;28;19925;-63
2021/11/19 06:00:37;;;;;;;;;;;22.10;51.90;;;;;;3132471;28;19929;-56
2021/11/19 06:02:09;;;;;;;;;;;22.20;51.80;;;;;;3134303;28;19937;-59
2021/11/19 06:03:41;;;;;;;;;;;22.20;51.70;;;;;;3132059;28;20250;-56
2021/11/19 06:05:13;;;;;;;;;;;22.20;51.80;;;;;;3133872;28;19931;-58
2021/11/19 06:06:44;;;;;;;;;;;22.20;51.90;;;;;;3140471;28;19940;-63
2021/11/19 06:08:16;;;;;;;;;;;22.20;53.00;;;;;;3133320;28;19928;-55
2021/11/19 06:09:49;;;;;;;;;;;22.20;52.30;;;;;;3132833;28;19933;-59
2021/11/19 06:11:22;;;;;;;;;;;22.20;52.40;;;;;;3132671;28;19928;-60
2021/11/19 06:12:54;;;;;;;;;;;22.30;52.50;;;;;;3133519;28;19933;-61
2021/11/19 06:14:28;;;;;;;;;;;22.30;52.50;;;;;;3133721;28;19925;-55
2021/11/19 06:16:01;;;;;;;;;;;22.30;52.80;;;;;;3132814;28;19990;-56
2021/11/19 06:17:35;;;;;;;;;;;22.20;53.20;;;;;;3133680;28;20399;-60
2021/11/19 06:19:08;;;;;;;;;;;22.20;53.30;;;;;;3134460;28;19931;-63
2021/11/19 06:20:40;;;;;;;;;;;22.30;53.40;;;;;;3132493;28;19925;-61
2021/11/19 06:22:13;;;;;;;;;;;22.30;53.40;;;;;;3133738;28;19924;-54
2021/11/19 06:23:45;;;;;;;;;;;22.30;53.30;;;;;;3134623;28;20352;-61
2021/11/19 06:25:18;;;;;;;;;;;22.30;53.40;;;;;;3133072;28;20266;-59
2021/11/19 06:26:50;;;;;;;;;;;22.30;53.60;;;;;;3133439;28;19928;-61
2021/11/19 06:28:28;;;;;;;;;;;22.30;53.70;;;;;;3132648;28;20121;-58
2021/11/19 06:30:01;;;;;;;;;;;22.30;54.10;;;;;;3133989;28;19931;-58
2021/11/19 06:31:33;;;;;;;;;;;22.30;54.10;;;;;;3132464;28;19987;-57
2021/11/19 06:33:04;;;;;;;;;;;22.40;54.80;;;;;;3131882;28;19925;-58
2021/11/19 06:34:36;;;;;;;;;;;22.40;55.20;;;;;;3132271;28;19924;-62
2021/11/19 06:36:08;;;;;;;;;;;22.40;55.40;;;;;;3141698;28;19932;-57
2021/11/19 06:37:39;;;;;;;;;;;22.40;55.80;;;;;;3133734;28;19925;-65
2021/11/19 06:39:11;;;;;;;;;;;22.40;56.30;;;;;;3133834;28;20396;-56
2021/11/19 06:40:42;;;;;;;;;;;22.50;56.50;;;;;;3132236;28;19925;-63
2021/11/19 06:42:14;;;;;;;;;;;22.50;56.40;;;;;;3134875;28;19970;-55
2021/11/19 06:43:46;;;;;;;;;;;22.50;56.70;;;;;;3134575;28;20373;-60
2021/11/19 06:45:19;;;;;;;;;;;22.50;56.50;;;;;;3129847;28;19925;-57
2021/11/19 06:46:50;;;;;;;;;;;22.50;56.50;;;;;;3132357;28;20297;-53
2021/11/19 06:48:22;;;;;;;;;;;22.50;56.30;;;;;;3131093;28;19932;-58
2021/11/19 06:49:53;;;;;;;;;;;22.50;56.40;;;;;;3133222;28;20293;-57
2021/11/19 06:51:25;;;;;;;;;;;22.50;56.90;;;;;;3130237;28;19940;-60
2021/11/19 06:52:57;;;;;;;;;;;22.50;57.50;;;;;;3133477;28;19932;-54
2021/11/19 06:54:28;;;;;;;;;;;22.50;57.50;;;;;;3133300;28;19970;-59
2021/11/19 06:56:00;;;;;;;;;;;22.40;57.50;;;;;;3130682;28;19924;-58
2021/11/19 06:57:31;;;;;;;;;;;22.40;57.50;;;;;;3132794;28;20446;-62
2021/11/19 06:59:04;;;;;;;;;;;22.30;57.60;;;;;;3132629;28;19924;-54
2021/11/19 07:00:42;;;;;;;;;;;22.30;57.60;;;;;;3130843;28;19929;-60
2021/11/19 07:02:13;;;;;;;;;;;22.30;57.60;;;;;;3132287;28;19931;-58
2021/11/19 07:03:45;;;;;;;;;;;22.20;57.60;;;;;;3128226;28;19963;-59
2021/11/19 07:05:16;;;;;;;;;;;22.20;57.70;;;;;;3131327;28;19925;-60
2021/11/19 07:06:48;;;;;;;;;;;22.10;57.60;;;;;;3131527;28;19932;-61
2021/11/19 07:08:20;;;;;;;;;;;22.20;57.60;;;;;;3132711;28;20545;-57
2021/11/19 07:09:51;;;;;;;;;;;22.10;57.60;;;;;;3132959;28;20389;-59
2021/11/19 07:11:23;;;;;;;;;;;22.10;57.70;;;;;;3132723;28;19925;-56
2021/11/19 07:12:55;;;;;;;;;;;22.10;57.70;;;;;;3132392;28;19924;-60
2021/11/19 07:14:26;;;;;;;;;;;22.10;57.70;;;;;;3132640;28;20101;-62
2021/11/19 07:15:59;;;;;;;;;;;22.10;57.60;;;;;;3212434;22;19928;-52
2021/11/19 07:17:31;;;;;;;;;;;22.00;57.70;;;;;;3154573;28;19929;-54
2021/11/19 07:19:03;;;;;;;;;;;22.10;57.70;;;;;;3137792;28;19981;-55
2021/11/19 07:20:35;;;;;;;;;;;22.10;57.50;;;;;;3153669;28;19963;-57
2021/11/19 07:22:06;;;;;;;;;;;22.10;57.40;;;;;;3140135;28;19924;-52
2021/11/19 07:23:38;;;;;;;;;;;22.10;57.30;;;;;;3133738;28;19928;-51
2021/11/19 07:25:10;;;;;;;;;;;22.10;57.40;;;;;;3145444;28;19931;-52
2021/11/19 07:26:42;;;;;;;;;;;22.10;57.40;;;;;;3145038;28;19931;-54
2021/11/19 07:28:14;;;;;;;;;;;22.10;57.30;;;;;;3145342;28;19940;-56
2021/11/19 07:29:45;;;;;;;;;;;22.10;57.30;;;;;;3145479;28;19924;-57
2021/11/19 07:31:18;;;;;;;;;;;22.10;57.20;;;;;;3144405;28;19997;-59
2021/11/19 07:32:50;;;;;;;;;;;22.10;57.10;;;;;;3149340;28;20345;-51
2021/11/19 07:34:22;;;;;;;;;;;22.10;57.10;;;;;;3157395;28;19924;-57
2021/11/19 07:35:53;;;;;;;;;;;22.10;57.00;;;;;;3131914;28;19978;-50
2021/11/19 07:37:25;;;;;;;;;;;22.10;57.00;;;;;;3133598;28;20333;-50
2021/11/19 07:38:56;;;;;;;;;;;22.10;57.00;;;;;;3133013;28;19925;-53
2021/11/19 07:40:29;;;;;;;;;;;22.10;56.80;;;;;;3143217;28;19928;-54
2021/11/19 07:42:01;;;;;;;;;;;22.10;56.90;;;;;;3136541;28;19924;-54
2021/11/19 07:43:35;;;;;;;;;;;22.10;56.70;;;;;;3144453;28;19924;-51
2021/11/19 07:45:06;;;;;;;;;;;22.10;56.80;;;;;;3143917;28;19985;-56
2021/11/19 07:46:40;;;;;;;;;;;22.10;56.80;;;;;;3140926;28;19928;-59
2021/11/19 07:48:12;;;;;;;;;;;22.10;56.70;;;;;;3139165;28;19975;-55
2021/11/19 07:49:44;;;;;;;;;;;22.10;56.70;;;;;;3140062;28;19978;-54
2021/11/19 07:51:17;;;;;;;;;;;22.10;56.80;;;;;;3144661;28;19950;-50
2021/11/19 07:52:48;;;;;;;;;;;22.20;56.50;;;;;;3142934;28;19936;-57
2021/11/19 07:54:20;;;;;;;;;;;22.20;56.50;;;;;;3144482;28;19931;-51
2021/11/19 07:55:52;;;;;;;;;;;22.10;56.50;;;;;;3144907;28;19924;-50
2021/11/19 07:57:24;;;;;;;;;;;22.20;56.50;;;;;;3145490;28;19970;-52
2021/11/19 07:58:55;;;;;;;;;;;22.10;56.50;;;;;;3143884;28;19973;-58
2021/11/19 08:00:28;;;;;;;;;;;22.10;56.40;;;;;;3142556;28;19985;-58
2021/11/19 08:02:01;;;;;;;;;;;22.10;56.40;;;;;;3145406;28;19928;-57
2021/11/19 08:03:32;;;;;;;;;;;22.10;56.40;;;;;;3142215;28;19928;-56
2021/11/19 08:05:05;;;;;;;;;;;22.10;56.60;;;;;;3139913;28;19924;-52
2021/11/19 08:06:36;;;;;;;;;;;22.10;56.50;;;;;;3141349;28;19935;-50
2021/11/19 08:08:08;;;;;;;;;;;22.10;56.50;;;;;;3144631;28;19928;-55
2021/11/19 08:09:40;;;;;;;;;;;22.10;56.50;;;;;;3135697;28;19932;-54
2021/11/19 08:11:12;;;;;;;;;;;22.10;56.50;;;;;;3138675;28;19925;-52
2021/11/19 08:12:44;;;;;;;;;;;22.10;57.20;;;;;;3141787;28;20390;-50
2021/11/19 08:14:15;;;;;;;;;;;22.20;56.70;;;;;;3141929;28;19925;-50
2021/11/19 08:15:47;;;;;;;;;;;22.10;56.60;;;;;;3152191;28;19978;-51
2021/11/19 08:17:22;;;;;;;;;;;22.10;56.40;;;;;;3145273;28;20062;-55
2021/11/19 08:18:55;;;;;;;;;;;22.10;56.70;;;;;;3143576;28;19978;-55
2021/11/19 08:20:28;;;;;;;;;;;22.10;56.70;;;;;;3142663;28;19925;-53
2021/11/19 08:22:00;;;;;;;;;;;22.10;56.70;;;;;;3144618;28;19929;-50
2021/11/19 08:23:34;;;;;;;;;;;22.10;56.70;;;;;;3143289;28;20283;-54
2021/11/19 08:25:06;;;;;;;;;;;22.10;56.60;;;;;;3143958;28;19924;-50
2021/11/19 08:26:38;;;;;;;;;;;22.10;56.60;;;;;;3143971;28;19986;-50
2021/11/19 08:28:10;;;;;;;;;;;22.10;56.50;;;;;;3143830;28;20288;-52
2021/11/19 08:29:42;;;;;;;;;;;22.10;56.50;;;;;;3142441;28;19932;-55
2021/11/19 08:31:14;;;;;;;;;;;22.10;56.40;;;;;;3143584;28;19973;-54
2021/11/19 08:32:47;;;;;;;;;;;22.10;56.30;;;;;;3144895;28;19932;-52
2021/11/19 08:34:19;;;;;;;;;;;22.10;56.40;;;;;;3144380;28;19982;-55
2021/11/19 08:35:50;;;;;;;;;;;22.10;56.30;;;;;;3132841;28;20400;-56
2021/11/19 08:37:22;;;;;;;;;;;22.10;56.30;;;;;;3132595;28;19925;-52
2021/11/19 08:38:54;;;;;;;;;;;22.10;56.40;;;;;;3132559;28;20012;-51
2021/11/19 08:40:26;;;;;;;;;;;22.10;56.40;;;;;;3131448;28;20362;-50
2021/11/19 08:41:58;;;;;;;;;;;22.10;56.50;;;;;;3133357;28;19925;-52
2021/11/19 08:43:30;;;;;;;;;;;22.10;56.40;;;;;;3131963;28;19978;-59
2021/11/19 08:45:02;;;;;;;;;;;22.10;56.30;;;;;;3142372;28;19925;-55
2021/11/19 08:46:34;;;;;;;;;;;22.10;56.30;;;;;;3143731;28;20633;-54
2021/11/19 08:48:07;;;;;;;;;;;22.10;56.30;;;;;;3148049;28;19925;-50
2021/11/19 08:49:39;;;;;;;;;;;22.10;56.20;;;;;;3147514;28;19925;-56
2021/11/19 08:51:11;;;;;;;;;;;22.10;56.20;;;;;;3146922;28;19924;-55
2021/11/19 08:52:43;;;;;;;;;;;22.10;56.10;;;;;;3147948;28;19924;-52
2021/11/19 08:54:16;;;;;;;;;;;22.10;56.10;;;;;;3146612;28;19925;-55
2021/11/19 08:55:48;;;;;;;;;;;22.10;56.10;;;;;;3147133;28;19924;-49